Time;durP1;ratioP1;P1;durP2;ratioP2;P2;SDS_P1;SDS_P2;PMS_P1;PMS_P2;Temp;Humidity;BMP_temperature;BMP_pressure;BME280_temperature;BME280_humidity;BME280_pressure;Samples;Min_cycle;Max_cycle;Signal;HPM_P1;HPM_P2
2023/09/07 00:01:29;;;;;;;;;;;;;;;24.95;44.72;101226.34;7367354;19;20018;-60
2023/09/07 00:03:55;;;;;;;0.10;0.10;;;;;;;24.90;46.09;101225.84;7366129;19;19961;-59
2023/09/07 00:06:20;;;;;;;0.10;0.10;;;;;;;24.85;46.65;101217.31;7362700;19;20006;-58
2023/09/07 00:08:45;;;;;;;0.00;0.00;;;;;;;24.81;46.24;101213.16;7364894;19;20025;-60
2023/09/07 00:11:11;;;;;;;0.10;0.10;;;;;;;24.74;46.42;101212.78;7360759;19;20002;-57
2023/09/07 00:13:36;;;;;;;0.10;0.10;;;;;;;24.72;46.26;101197.81;7366461;19;20034;-60
2023/09/07 00:16:03;;;;;;;0.10;0.10;;;;;;;24.68;46.63;101209.69;7355827;19;20007;-59
2023/09/07 00:18:30;;;;;;;0.08;0.08;;;;;;;24.63;46.49;101199.34;7365148;19;20845;-59
2023/09/07 00:20:55;;;;;;;0.10;0.10;;;;;;;24.58;46.78;101202.38;7364019;19;20011;-59
2023/09/07 00:23:21;;;;;;;0.10;0.10;;;;;;;24.53;47.08;101199.19;7363626;19;20053;-59
2023/09/07 00:25:46;;;;;;;0.08;0.08;;;;;;;24.49;46.51;101208.41;7359989;19;20034;-59
2023/09/07 00:28:12;;;;;;;0.10;0.10;;;;;;;24.40;47.12;101198.38;7364229;19;20022;-60
2023/09/07 00:30:38;;;;;;;0.10;0.10;;;;;;;24.40;47.12;101198.38;7365394;19;20049;-60
2023/09/07 00:33:03;;;;;;;0.10;0.10;;;;;;;24.37;47.23;101198.59;7364947;19;20026;-60
2023/09/07 00:35:29;;;;;;;0.10;0.10;;;;;;;24.32;46.95;101201.56;7363305;19;20006;-59
2023/09/07 00:37:54;;;;;;;0.10;0.10;;;;;;;24.27;46.76;101206.38;7363193;19;20128;-60
2023/09/07 00:40:20;;;;;;;0.00;0.00;;;;;;;24.24;47.18;101197.75;7360727;19;20085;-59
2023/09/07 00:42:46;;;;;;;0.08;0.08;;;;;;;24.19;47.00;101205.25;7366880;19;20013;-59
2023/09/07 00:45:12;;;;;;;0.08;0.08;;;;;;;24.15;46.83;101195.75;7368621;19;20010;-59
2023/09/07 00:47:38;;;;;;;0.10;0.10;;;;;;;24.12;47.24;101201.28;7363036;19;20033;-59
2023/09/07 00:50:07;;;;;;;0.00;0.00;;;;;;;24.08;46.96;101193.53;7365382;19;20660;-58
2023/09/07 00:52:34;;;;;;;0.10;0.10;;;;;;;24.04;47.41;101200.03;7364818;19;20876;-59
2023/09/07 00:55:04;;;;;;;0.00;0.00;;;;;;;24.00;47.11;101198.53;7363598;19;20045;-58
2023/09/07 00:57:30;;;;;;;0.00;0.00;;;;;;;23.98;47.62;101208.47;7362521;19;20770;-60
2023/09/07 00:59:55;;;;;;;0.00;0.00;;;;;;;23.95;47.81;101205.16;7358788;19;20011;-59
2023/09/07 01:02:21;;;;;;;0.00;0.00;;;;;;;23.91;47.43;101207.19;7359762;19;20015;-60
2023/09/07 01:04:46;;;;;;;0.03;0.03;;;;;;;23.89;47.79;101213.63;7357720;19;20014;-59
2023/09/07 01:07:20;;;;;;;0.10;0.10;;;;;;;23.87;47.46;101205.69;7366679;19;20025;-58
2023/09/07 01:09:51;;;;;;;0.10;0.10;;;;;;;23.84;47.27;101203.25;7362000;19;20011;-59
2023/09/07 01:12:16;;;;;;;0.10;0.10;;;;;;;23.81;47.67;101206.13;7365838;19;20011;-58
2023/09/07 01:14:42;;;;;;;0.10;0.10;;;;;;;23.77;47.81;101205.53;7364342;19;20010;-58
2023/09/07 01:17:09;;;;;;;0.10;0.10;;;;;;;23.77;48.28;101201.97;7363467;19;20006;-59
2023/09/07 01:19:35;;;;;;;0.08;0.08;;;;;;;23.73;47.98;101197.84;7367974;19;20021;-60
2023/09/07 01:22:01;;;;;;;0.10;0.10;;;;;;;23.70;48.23;101195.38;7367275;19;20010;-61
2023/09/07 01:24:29;;;;;;;0.00;0.00;;;;;;;23.33;48.51;101144.59;7367625;19;20006;-59
2023/09/07 01:26:56;;;;;;;0.10;0.10;;;;;;;23.58;48.40;101202.38;7370963;19;20008;-60
2023/09/07 01:29:22;;;;;;;0.00;0.00;;;;;;;23.58;48.50;101220.19;7361786;19;20331;-60
2023/09/07 01:31:48;;;;;;;0.10;0.10;;;;;;;23.58;48.49;101222.88;7363968;19;20511;-60
2023/09/07 01:34:14;;;;;;;0.08;0.08;;;;;;;23.48;48.26;101210.16;7362665;19;20011;-60
2023/09/07 01:36:40;;;;;;;0.10;0.10;;;;;;;23.48;48.41;101215.50;7366676;19;20010;-59
2023/09/07 01:39:06;;;;;;;0.10;0.10;;;;;;;23.46;48.53;101217.41;7367558;19;20029;-60
2023/09/07 01:41:31;;;;;;;0.10;0.10;;;;;;;23.40;48.27;101215.16;7368388;19;20034;-57
2023/09/07 01:43:56;;;;;;;0.10;0.10;;;;;;;23.36;48.21;101211.00;7364289;19;20014;-59
2023/09/07 01:46:22;;;;;;;0.00;0.00;;;;;;;23.35;48.32;101209.28;7360249;19;20811;-57
2023/09/07 01:48:47;;;;;;;0.10;0.10;;;;;;;23.29;48.95;101210.56;7366988;19;20017;-60
2023/09/07 01:51:13;;;;;;;0.00;0.00;;;;;;;23.22;48.59;101192.44;7371593;19;20310;-58
2023/09/07 01:53:38;;;;;;;0.10;0.10;;;;;;;23.22;48.37;101200.44;7367179;19;20493;-60
2023/09/07 01:56:03;;;;;;;0.05;0.05;;;;;;;23.16;49.05;101200.81;7369324;19;20014;-60
2023/09/07 01:58:29;;;;;;;0.10;0.10;;;;;;;23.04;48.71;101189.19;7342766;19;20014;-60
2023/09/07 02:00:58;;;;;;;0.10;0.10;;;;;;;23.02;48.57;101183.13;7367807;19;20046;-60
2023/09/07 02:03:24;;;;;;;0.00;0.00;;;;;;;23.04;48.63;101197.19;7364699;19;20017;-60
2023/09/07 02:05:50;;;;;;;0.00;0.00;;;;;;;23.00;48.48;101193.88;7363432;19;20029;-60
2023/09/07 02:08:15;;;;;;;0.10;0.10;;;;;;;22.96;49.13;101187.06;7363666;19;19998;-60
2023/09/07 02:10:41;;;;;;;0.00;0.00;;;;;;;22.92;49.12;101184.69;7365734;19;20022;-59
2023/09/07 02:13:06;;;;;;;0.10;0.10;;;;;;;22.89;49.18;101180.41;7365663;19;20527;-60
2023/09/07 02:15:31;;;;;;;0.08;0.08;;;;;;;22.83;49.29;101175.47;7365693;19;20011;-59
2023/09/07 02:17:57;;;;;;;0.10;0.10;;;;;;;22.80;49.53;101181.00;7365730;19;20014;-59
2023/09/07 02:20:22;;;;;;;0.10;0.10;;;;;;;22.77;49.56;101189.19;7364775;19;20034;-60
2023/09/07 02:22:48;;;;;;;0.10;0.10;;;;;;;22.74;49.29;101187.59;7367066;19;20112;-58
2023/09/07 02:25:13;;;;;;;0.00;0.00;;;;;;;22.71;49.43;101178.97;7364533;19;20013;-60
2023/09/07 02:27:39;;;;;;;0.03;0.03;;;;;;;22.68;49.63;101177.34;7365618;19;20597;-57
2023/09/07 02:30:05;;;;;;;0.10;0.10;;;;;;;22.66;49.85;101178.41;7363239;19;20010;-59
2023/09/07 02:32:31;;;;;;;0.10;0.10;;;;;;;22.64;49.31;101170.50;7365362;19;20407;-60
2023/09/07 02:34:57;;;;;;;0.10;0.10;;;;;;;22.60;49.62;101163.66;7366657;19;20336;-59
2023/09/07 02:37:23;;;;;;;0.10;0.10;;;;;;;22.55;49.80;101165.78;7373817;19;20006;-59
2023/09/07 02:39:48;;;;;;;0.10;0.10;;;;;;;22.53;49.77;101154.38;7359067;19;20665;-59
2023/09/07 02:42:14;;;;;;;0.00;0.00;;;;;;;22.50;50.27;101152.75;7369114;19;20017;-59
2023/09/07 02:44:39;;;;;;;0.00;0.00;;;;;;;22.47;50.24;101152.13;7365167;19;20704;-59
2023/09/07 02:47:05;;;;;;;0.05;0.05;;;;;;;22.44;49.64;101158.50;7363886;19;20003;-60
2023/09/07 02:49:30;;;;;;;0.00;0.00;;;;;;;22.42;50.25;101156.91;7359186;19;21155;-59
2023/09/07 02:51:56;;;;;;;0.10;0.10;;;;;;;22.39;50.07;101155.28;7368141;19;20803;-58
2023/09/07 02:54:22;;;;;;;0.00;0.00;;;;;;;22.35;50.47;101151.09;7362930;19;20806;-59
2023/09/07 02:56:47;;;;;;;0.10;0.10;;;;;;;22.33;50.77;101150.38;7370951;19;20041;-56
2023/09/07 02:59:13;;;;;;;0.10;0.10;;;;;;;22.30;51.15;101155.88;7369279;19;20830;-60
2023/09/07 03:01:39;;;;;;;0.00;0.00;;;;;;;22.28;50.71;101149.81;7363170;19;20022;-58
2023/09/07 03:04:05;;;;;;;0.00;0.00;;;;;;;22.25;51.40;101152.66;7357627;19;21087;-61
2023/09/07 03:06:31;;;;;;;0.00;0.00;;;;;;;22.22;51.14;101147.53;7372327;19;20487;-59
2023/09/07 03:08:57;;;;;;;0.00;0.00;;;;;;;22.20;51.06;101144.13;7372129;19;20018;-60
2023/09/07 03:11:22;;;;;;;0.00;0.00;;;;;;;22.19;50.87;101147.72;7367195;19;20824;-60
2023/09/07 03:13:48;;;;;;;0.08;0.08;;;;;;;22.18;50.83;101143.38;7362855;19;20015;-60
2023/09/07 03:16:13;;;;;;;0.00;0.00;;;;;;;22.16;51.32;101146.13;7366267;19;20047;-61
2023/09/07 03:18:38;;;;;;;0.10;0.10;;;;;;;22.15;50.79;101146.22;7367855;19;20014;-59
2023/09/07 03:21:04;;;;;;;0.00;0.00;;;;;;;22.12;51.34;101152.59;7344996;19;20104;-59
2023/09/07 03:23:31;;;;;;;0.00;0.00;;;;;;;22.10;51.63;101157.16;7363862;19;20018;-60
2023/09/07 03:25:57;;;;;;;0.05;0.05;;;;;;;22.09;50.97;101151.91;7370660;19;20034;-59
2023/09/07 03:28:23;;;;;;;0.10;0.10;;;;;;;22.06;51.54;101149.44;7363017;19;20021;-58
2023/09/07 03:30:49;;;;;;;0.10;0.10;;;;;;;22.04;50.96;101149.53;7368933;19;20457;-60
2023/09/07 03:33:14;;;;;;;0.08;0.08;;;;;;;22.02;50.66;101154.09;7366688;19;20355;-59
2023/09/07 03:35:40;;;;;;;0.10;0.10;;;;;;;22.00;51.36;101143.56;7369753;19;20010;-60
2023/09/07 03:38:06;;;;;;;0.10;0.10;;;;;;;21.95;51.53;101145.66;7366439;19;20093;-59
2023/09/07 03:40:31;;;;;;;0.10;0.10;;;;;;;21.95;51.37;101145.66;7369285;19;20749;-59
2023/09/07 03:42:57;;;;;;;0.10;0.10;;;;;;;21.91;52.00;101141.50;7368916;19;20017;-58
2023/09/07 03:45:22;;;;;;;0.00;0.00;;;;;;;21.90;51.87;101147.75;7367523;19;20010;-58
2023/09/07 03:47:48;;;;;;;0.10;0.10;;;;;;;21.87;52.27;101147.94;7364818;19;20015;-60
2023/09/07 03:50:13;;;;;;;0.10;0.10;;;;;;;21.86;52.51;101135.59;7368061;19;20011;-59
2023/09/07 03:52:39;;;;;;;0.10;0.10;;;;;;;21.85;52.68;101139.22;7364391;19;20015;-61
2023/09/07 03:55:05;;;;;;;0.10;0.10;;;;;;;21.83;52.37;101138.44;7365941;19;20035;-59
2023/09/07 03:57:30;;;;;;;0.10;0.10;;;;;;;21.83;52.26;101140.25;7373731;19;20022;-59
2023/09/07 03:59:56;;;;;;;0.10;0.10;;;;;;;21.81;52.75;101142.16;7372668;19;20577;-60
2023/09/07 04:02:23;;;;;;;0.10;0.10;;;;;;;21.80;52.66;101146.63;7368397;19;20021;-59
2023/09/07 04:04:50;;;;;;;0.10;0.10;;;;;;;21.79;52.71;101139.59;7363802;19;20015;-60
2023/09/07 04:07:16;;;;;;;0.03;0.03;;;;;;;21.77;51.86;101144.16;7362371;19;20025;-58
2023/09/07 04:09:42;;;;;;;0.00;0.00;;;;;;;21.76;52.66;101153.09;7366827;19;20010;-60
2023/09/07 04:12:07;;;;;;;0.00;0.00;;;;;;;21.75;52.68;101140.75;7366828;19;20011;-59
2023/09/07 04:14:33;;;;;;;0.00;0.00;;;;;;;21.73;52.57;101147.94;7369190;19;20359;-59
2023/09/07 04:16:58;;;;;;;0.00;0.00;;;;;;;21.70;53.53;101125.09;7366457;19;20779;-59
2023/09/07 04:19:23;;;;;;;0.10;0.10;;;;;;;21.67;53.06;101132.38;7367609;19;20018;-60
2023/09/07 04:21:49;;;;;;;0.00;0.00;;;;;;;21.69;53.15;101127.81;7357619;19;20019;-59
2023/09/07 04:24:15;;;;;;;0.10;0.10;;;;;;;21.68;52.63;101131.44;7366581;19;20028;-60
2023/09/07 04:26:40;;;;;;;0.10;0.10;;;;;;;21.66;52.00;101117.41;7367550;19;20019;-59
2023/09/07 04:29:07;;;;;;;0.00;0.00;;;;;;;21.65;52.45;101121.00;7370908;19;20010;-59
2023/09/07 04:31:33;;;;;;;;;;;;;;;21.65;50.43;101118.34;7366727;19;20014;-58
2023/09/07 04:33:58;;;;;;;0.10;0.10;;;;;;;21.62;52.79;101110.56;7366989;19;19946;-60
2023/09/07 04:36:24;;;;;;;0.00;0.00;;;;;;;21.59;53.56;101106.28;7366501;19;20470;-60
2023/09/07 04:38:49;;;;;;;0.10;0.10;;;;;;;21.57;53.37;101107.34;7360224;19;20030;-59
2023/09/07 04:41:14;;;;;;;0.05;0.05;;;;;;;21.55;53.97;101103.94;7363448;19;20018;-61
2023/09/07 04:43:44;;;;;;;0.00;0.00;;;;;;;21.54;54.13;101104.84;7362573;19;20010;-60
2023/09/07 04:46:11;;;;;;;0.10;0.10;;;;;;;21.50;54.20;101115.69;7366916;19;20022;-60
2023/09/07 04:48:36;;;;;;;0.10;0.10;;;;;;;21.49;54.38;101108.69;7366449;19;20853;-57
2023/09/07 04:51:03;;;;;;;0.10;0.10;;;;;;;21.49;54.38;101116.66;7365359;19;20014;-59
2023/09/07 04:53:31;;;;;;;0.10;0.10;;;;;;;21.48;54.63;101120.22;7366149;19;20011;-60
2023/09/07 04:55:57;;;;;;;0.00;0.00;;;;;;;21.48;54.31;101117.56;7357762;19;20059;-60
2023/09/07 04:58:22;;;;;;;0.10;0.10;;;;;;;21.46;54.61;101116.81;7366185;19;20003;-60
2023/09/07 05:00:48;;;;;;;0.10;0.10;;;;;;;21.41;54.48;101113.59;7359976;19;20017;-59
2023/09/07 05:03:13;;;;;;;0.10;0.10;;;;;;;21.43;54.04;101122.31;7363714;19;20029;-59
2023/09/07 05:05:39;;;;;;;0.03;0.03;;;;;;;21.42;54.48;101120.59;7360988;19;20010;-60
2023/09/07 05:08:05;;;;;;;0.10;0.10;;;;;;;21.42;54.21;101115.28;7362926;19;20024;-61
2023/09/07 05:10:34;;;;;;;0.08;0.08;;;;;;;21.41;54.10;101121.56;7363300;19;20007;-59
2023/09/07 05:12:59;;;;;;;0.03;0.03;;;;;;;21.29;54.73;101098.38;7365425;19;20311;-59
2023/09/07 05:15:26;;;;;;;0.10;0.10;;;;;;;21.36;54.49;101102.41;7362362;19;20003;-58
2023/09/07 05:17:51;;;;;;;0.10;0.10;;;;;;;21.33;54.49;101099.91;7367739;19;20572;-58
2023/09/07 05:20:17;;;;;;;0.08;0.08;;;;;;;21.35;54.58;101108.66;7362419;19;19998;-59
2023/09/07 05:22:42;;;;;;;0.00;0.00;;;;;;;21.33;54.59;101115.84;7365433;19;20006;-58
2023/09/07 05:25:08;;;;;;;0.10;0.10;;;;;;;21.33;54.74;101110.53;7363714;19;20006;-60
2023/09/07 05:27:36;;;;;;;0.08;0.08;;;;;;;21.32;54.77;101114.16;7367806;19;20007;-60
2023/09/07 05:30:03;;;;;;;0.10;0.10;;;;;;;21.30;55.06;101121.38;7371206;19;20013;-58
2023/09/07 05:32:28;;;;;;;0.00;0.00;;;;;;;21.29;55.04;101124.94;7359881;19;19995;-60
2023/09/07 05:34:54;;;;;;;0.00;0.00;;;;;;;21.27;54.75;101132.13;7365320;19;20015;-57
2023/09/07 05:37:19;;;;;;;0.05;0.05;;;;;;;21.25;55.35;101129.59;7359899;19;19995;-60
2023/09/07 05:39:45;;;;;;;0.00;0.00;;;;;;;21.26;54.75;101125.13;7359050;19;20006;-59
2023/09/07 05:42:10;;;;;;;0.10;0.10;;;;;;;21.21;55.25;101116.56;7363412;19;20003;-58
2023/09/07 05:44:36;;;;;;;0.00;0.00;;;;;;;21.26;55.28;101119.81;7356856;19;20015;-59
2023/09/07 05:47:02;;;;;;;0.00;0.00;;;;;;;21.28;55.06;101128.53;7364710;19;20010;-59
2023/09/07 05:49:28;;;;;;;0.00;0.00;;;;;;;21.28;55.50;101125.88;7355494;19;20501;-60
2023/09/07 05:51:53;;;;;;;0.10;0.10;;;;;;;21.30;55.25;101125.81;7364280;19;20007;-59
2023/09/07 05:54:19;;;;;;;0.05;0.05;;;;;;;21.31;55.04;101125.72;7362890;19;20039;-60
2023/09/07 05:56:44;;;;;;;0.03;0.03;;;;;;;21.32;55.22;101123.94;7365774;19;20230;-60
2023/09/07 05:59:10;;;;;;;0.10;0.10;;;;;;;21.35;55.10;101119.28;7361030;19;20010;-60
2023/09/07 06:01:35;;;;;;;0.10;0.10;;;;;;;21.36;55.73;101115.69;7371281;19;20017;-60
2023/09/07 06:04:01;;;;;;;0.00;0.00;;;;;;;21.38;55.47;101113.78;7372810;19;20107;-60
2023/09/07 06:06:26;;;;;;;0.03;0.03;;;;;;;21.39;55.48;101099.56;7367053;19;20006;-56
2023/09/07 06:08:51;;;;;;;0.10;0.10;;;;;;;21.41;56.18;101102.97;7366274;19;20723;-60
2023/09/07 06:11:17;;;;;;;0.10;0.10;;;;;;;21.43;55.37;101101.06;7365650;19;20014;-58
2023/09/07 06:13:42;;;;;;;0.10;0.10;;;;;;;21.43;55.59;101111.69;7361757;19;20022;-60
2023/09/07 06:16:08;;;;;;;0.10;0.10;;;;;;;21.45;54.95;101117.78;7367948;19;20011;-58
2023/09/07 06:18:33;;;;;;;0.00;0.00;;;;;;;21.45;54.71;101120.44;7368483;19;20011;-60
2023/09/07 06:20:58;;;;;;;0.10;0.10;;;;;;;21.46;55.05;101122.13;7373206;19;20006;-60
2023/09/07 06:23:24;;;;;;;0.10;0.10;;;;;;;21.46;55.05;101122.13;7370796;19;20386;-60
2023/09/07 06:25:49;;;;;;;0.10;0.10;;;;;;;21.47;55.07;101128.31;7359126;19;20006;-60
2023/09/07 06:28:14;;;;;;;0.10;0.10;;;;;;;21.45;54.94;101131.06;7366651;19;20018;-59
2023/09/07 06:30:40;;;;;;;0.10;0.10;;;;;;;21.46;55.45;101132.75;7359265;19;20007;-59
2023/09/07 06:33:05;;;;;;;0.05;0.05;;;;;;;21.47;55.38;101134.47;7367730;19;20010;-60
2023/09/07 06:35:31;;;;;;;0.10;0.10;;;;;;;21.48;55.67;101128.19;7360867;19;20002;-60
2023/09/07 06:37:56;;;;;;;0.00;0.00;;;;;;;21.50;55.74;101136.94;7364176;19;20019;-59
2023/09/07 06:40:22;;;;;;;0.10;0.10;;;;;;;21.52;55.97;101133.34;7363301;19;20021;-57
2023/09/07 06:42:47;;;;;;;0.10;0.10;;;;;;;21.54;55.76;101139.41;7361729;19;20022;-60
2023/09/07 06:45:13;;;;;;;0.10;0.10;;;;;;;21.56;55.71;101142.84;7358394;19;20006;-59
2023/09/07 06:47:38;;;;;;;0.10;0.10;;;;;;;21.60;55.50;101147.03;7362222;19;20010;-58
2023/09/07 06:50:05;;;;;;;0.10;0.10;;;;;;;21.63;56.31;101154.78;7366555;19;20010;-60
2023/09/07 06:52:30;;;;;;;0.10;0.10;;;;;;;21.66;55.56;101149.28;7363094;19;20766;-60
2023/09/07 06:54:56;;;;;;;0.10;0.10;;;;;;;21.69;56.18;101151.75;7359531;19;20465;-60
2023/09/07 06:57:21;;;;;;;0.00;0.00;;;;;;;21.72;56.10;101149.75;7362906;19;20006;-58
2023/09/07 06:59:48;;;;;;;0.00;0.00;;;;;;;21.75;56.18;101151.38;7363270;19;20015;-60
2023/09/07 07:02:13;;;;;;;0.10;0.10;;;;;;;21.75;56.00;101144.25;7364226;19;20018;-57
2023/09/07 07:04:39;;;;;;;0.10;0.10;;;;;;;21.81;56.19;101145.69;7345243;19;20013;-59
2023/09/07 07:07:05;;;;;;;0.10;0.10;;;;;;;21.84;55.75;101153.44;7364586;19;20010;-59
2023/09/07 07:09:31;;;;;;;0.10;0.10;;;;;;;21.83;55.75;101149.09;7365084;19;20021;-60
2023/09/07 07:12:00;;;;;;;0.10;0.10;;;;;;;21.83;56.23;101146.41;7363977;19;20070;-59
2023/09/07 07:14:25;;;;;;;0.10;0.10;;;;;;;21.93;56.17;101155.53;7365784;19;20011;-59
2023/09/07 07:16:51;;;;;;;0.00;0.00;;;;;;;21.98;55.74;101161.41;7366557;19;20753;-59
2023/09/07 07:19:16;;;;;;;0.00;0.00;;;;;;;22.00;56.38;101148.91;7362463;19;20015;-60
2023/09/07 07:21:42;;;;;;;0.00;0.00;;;;;;;22.05;56.34;101158.34;7371645;19;20026;-60
2023/09/07 07:24:07;;;;;;;0.10;0.10;;;;;;;22.09;56.37;101165.19;7358886;19;20558;-60
2023/09/07 07:26:33;;;;;;;0.10;0.10;;;;;;;22.10;56.00;101162.47;7363113;19;20025;-60
2023/09/07 07:28:59;;;;;;;0.10;0.10;;;;;;;22.14;56.07;101150.69;7364627;19;20363;-60
2023/09/07 07:31:24;;;;;;;0.08;0.08;;;;;;;22.17;56.35;101144.34;7361242;19;20656;-59
2023/09/07 07:33:50;;;;;;;0.00;0.00;;;;;;;22.20;56.40;101144.13;7364108;19;20014;-60
2023/09/07 07:36:15;;;;;;;0.05;0.05;;;;;;;22.24;56.04;101150.94;7361634;19;20022;-60
2023/09/07 07:38:41;;;;;;;0.10;0.10;;;;;;;22.27;55.36;101145.44;7364678;19;20023;-60
2023/09/07 07:41:06;;;;;;;0.00;0.00;;;;;;;22.29;55.69;101138.22;7362101;19;20030;-58
2023/09/07 07:43:35;;;;;;;0.00;0.00;;;;;;;22.33;55.56;101142.38;7362369;19;20014;-60
2023/09/07 07:46:00;;;;;;;0.05;0.05;;;;;;;22.26;55.31;101133.94;7340730;19;20014;-60
2023/09/07 07:48:26;;;;;;;0.10;0.10;;;;;;;22.34;55.13;101135.25;7365251;19;20010;-59
2023/09/07 07:50:51;;;;;;;0.10;0.10;;;;;;;22.32;55.29;101130.03;7363288;19;20064;-60
2023/09/07 07:53:16;;;;;;;0.10;0.10;;;;;;;22.37;55.29;101135.91;7365375;19;20022;-59
2023/09/07 07:55:42;;;;;;;0.03;0.03;;;;;;;22.39;55.64;101122.50;7357830;19;20034;-60
2023/09/07 07:58:09;;;;;;;0.00;0.00;;;;;;;22.42;55.17;101138.28;7365468;19;21201;-60
2023/09/07 08:00:38;;;;;;;0.00;0.00;;;;;;;22.48;55.36;101137.88;7362072;19;20386;-58
2023/09/07 08:03:08;;;;;;;0.00;0.00;;;;;;;22.50;55.40;101142.13;7362159;19;20022;-59
2023/09/07 08:05:34;;;;;;;0.10;0.10;;;;;;;22.55;55.36;101144.47;7371969;19;20010;-59
2023/09/07 08:08:00;;;;;;;0.10;0.10;;;;;;;22.53;55.74;101133.94;7373724;19;20488;-59
2023/09/07 08:10:26;;;;;;;0.10;0.10;;;;;;;22.70;55.32;101153.28;7372014;19;20022;-59
2023/09/07 08:12:56;;;;;;;0.10;0.10;;;;;;;22.79;55.26;101145.53;7374254;19;20022;-60
2023/09/07 08:15:22;;;;;;;0.10;0.10;;;;;;;22.84;55.62;101150.53;7367683;19;20896;-57
2023/09/07 08:17:48;;;;;;;0.10;0.10;;;;;;;22.90;55.74;101150.16;7369492;19;20022;-58
2023/09/07 08:20:15;;;;;;;0.10;0.10;;;;;;;22.96;55.27;101149.78;7368695;19;20010;-59
2023/09/07 08:22:42;;;;;;;0.03;0.03;;;;;;;22.95;56.35;101142.72;7371432;19;20020;-60
2023/09/07 08:25:08;;;;;;;0.10;0.10;;;;;;;23.11;55.20;101155.00;7374123;19;20469;-60
2023/09/07 08:27:34;;;;;;;0.00;0.00;;;;;;;23.07;56.05;101145.53;7376408;19;20015;-60
2023/09/07 08:29:59;;;;;;;0.10;0.10;;;;;;;23.24;55.15;101148.72;7375238;19;20006;-59
2023/09/07 08:32:25;;;;;;;0.10;0.10;;;;;;;23.31;55.37;101143.81;7369880;19;20010;-58
2023/09/07 08:34:51;;;;;;;0.00;0.00;;;;;;;23.37;55.45;101143.41;7370142;19;20012;-61
2023/09/07 08:37:16;;;;;;;0.10;0.10;;;;;;;23.42;55.16;101141.28;7372867;19;20014;-60
2023/09/07 08:39:42;;;;;;;0.10;0.10;;;;;;;23.46;55.42;101137.44;7367778;19;20011;-60
2023/09/07 08:42:09;;;;;;;0.10;0.10;;;;;;;23.52;55.17;101147.69;7369474;19;20006;-59
2023/09/07 08:44:37;;;;;;;0.00;0.00;;;;;;;23.62;54.91;101147.00;7370147;19;20581;-61
2023/09/07 08:47:04;;;;;;;0.10;0.10;;;;;;;23.66;54.81;101137.88;7374540;19;20066;-60
2023/09/07 08:49:30;;;;;;;0.10;0.10;;;;;;;23.68;55.33;101146.66;7370318;19;20663;-60
2023/09/07 08:51:58;;;;;;;0.10;0.10;;;;;;;23.74;54.66;101156.88;7367384;19;20038;-58
2023/09/07 08:54:25;;;;;;;0.10;0.10;;;;;;;23.75;54.89;101146.09;7370731;19;20015;-60
2023/09/07 08:56:50;;;;;;;0.03;0.03;;;;;;;23.76;55.15;101134.44;7371833;19;20801;-59
2023/09/07 08:59:16;;;;;;;0.10;0.10;;;;;;;23.78;55.00;101131.69;7370887;19;20013;-59
2023/09/07 09:01:42;;;;;;;0.10;0.10;;;;;;;23.81;55.44;101137.63;7366754;19;20765;-58
2023/09/07 09:04:08;;;;;;;0.10;0.10;;;;;;;23.84;55.02;101141.91;7375956;19;20042;-58
2023/09/07 09:06:33;;;;;;;0.10;0.10;;;;;;;23.85;55.98;101138.28;7377464;19;21492;-60
2023/09/07 09:08:59;;;;;;;0.10;0.10;;;;;;;23.92;55.62;101147.53;7373894;19;20085;-59
2023/09/07 09:11:25;;;;;;;0.10;0.10;;;;;;;24.00;56.07;101153.19;7371294;19;20011;-60
2023/09/07 09:13:52;;;;;;;0.00;0.00;;;;;;;24.08;55.90;101145.50;7370137;19;20014;-61
2023/09/07 09:16:18;;;;;;;0.00;0.00;;;;;;;24.09;55.61;101125.00;7370473;19;20044;-60
2023/09/07 09:18:59;;;;;;;0.10;0.10;;;;;;;24.34;55.29;101137.41;7367637;19;20007;-60
2023/09/07 09:21:26;;;;;;;0.10;0.10;;;;;;;24.43;57.59;101133.22;7370369;19;20010;-60
2023/09/07 09:23:52;;;;;;;;;;;;;;;24.66;54.27;101134.19;7366869;19;20473;-61
2023/09/07 09:26:18;;;;;;;0.10;0.10;;;;;;;24.70;56.58;101135.66;7371429;19;20384;-60
2023/09/07 09:28:47;;;;;;;0.10;0.10;;;;;;;24.78;56.14;101131.44;7365889;19;20011;-60
2023/09/07 09:31:14;;;;;;;0.03;0.03;;;;;;;24.87;55.41;101129.03;7369829;19;20011;-59
2023/09/07 09:33:40;;;;;;;0.10;0.10;;;;;;;24.91;55.30;101126.03;7369863;19;20040;-60
2023/09/07 09:36:07;;;;;;;0.03;0.03;;;;;;;24.97;55.47;101130.03;7368352;19;20018;-59
2023/09/07 09:38:33;;;;;;;0.10;0.10;;;;;;;25.02;55.27;101128.72;7368095;19;20003;-59
2023/09/07 09:40:59;;;;;;;0.10;0.10;;;;;;;25.10;55.40;101123.69;7366344;19;20024;-60
2023/09/07 09:43:26;;;;;;;0.10;0.10;;;;;;;25.21;55.52;101119.34;7368074;19;20046;-60
2023/09/07 09:45:52;;;;;;;0.10;0.10;;;;;;;25.32;55.36;101133.56;7376827;19;20017;-60
2023/09/07 09:48:21;;;;;;;0.05;0.05;;;;;;;25.40;55.17;101129.44;7375746;19;20016;-60
2023/09/07 09:50:48;;;;;;;0.00;0.00;;;;;;;25.53;55.74;101135.53;7368532;19;20023;-58
2023/09/07 09:53:18;;;;;;;0.03;0.03;;;;;;;25.53;55.22;101116.81;7369708;19;20019;-60
2023/09/07 09:55:47;;;;;;;0.00;0.00;;;;;;;25.68;55.08;101128.97;7369093;19;20893;-60
2023/09/07 09:58:16;;;;;;;0.10;0.10;;;;;;;25.81;54.65;101129.72;7367070;19;20007;-60
2023/09/07 10:00:48;;;;;;;0.10;0.10;;;;;;;25.87;54.73;101128.38;7372862;19;20011;-57
2023/09/07 10:03:23;;;;;;;0.00;0.00;;;;;;;25.90;54.10;101128.13;7364017;19;20094;-59
2023/09/07 10:05:49;;;;;;;0.05;0.05;;;;;;;25.81;54.77;101119.03;7368016;19;21312;-61
2023/09/07 10:08:17;;;;;;;0.00;0.00;;;;;;;25.99;55.17;101132.72;7365136;19;20010;-59
2023/09/07 10:10:44;;;;;;;0.00;0.00;;;;;;;26.01;54.68;101136.16;7366970;19;20007;-59
2023/09/07 10:13:13;;;;;;;0.00;0.00;;;;;;;26.14;54.81;101144.03;7367193;19;20101;-60
2023/09/07 10:15:41;;;;;;;0.10;0.10;;;;;;;26.25;54.71;101135.97;7367586;19;20972;-60
2023/09/07 10:18:15;;;;;;;0.10;0.10;;;;;;;26.43;54.44;101135.47;7367457;19;20014;-59
2023/09/07 10:20:55;;;;;;;0.00;0.00;;;;;;;26.65;54.42;101146.94;7368546;19;20511;-60
2023/09/07 10:23:21;;;;;;;0.10;0.10;;;;;;;26.83;55.02;101135.69;7362630;19;20388;-60
2023/09/07 10:25:52;;;;;;;0.10;0.10;;;;;;;27.21;54.29;101131.59;7367005;19;20959;-61
2023/09/07 10:28:24;;;;;;;0.10;0.10;;;;;;;27.47;54.16;101126.66;7367235;19;20017;-60
2023/09/07 10:31:09;;;;;;;0.00;0.00;;;;;;;27.97;53.77;101124.88;7366774;19;20035;-61
2023/09/07 10:33:35;;;;;;;0.00;0.00;;;;;;;28.24;53.26;101123.41;7366537;19;20078;-59
2023/09/07 10:36:03;;;;;;;0.10;0.10;;;;;;;28.63;52.34;101124.31;7372113;19;20010;-60
2023/09/07 10:38:28;;;;;;;0.10;0.10;;;;;;;29.03;52.23;101128.69;7366259;19;20034;-61
2023/09/07 10:40:59;;;;;;;0.00;0.00;;;;;;;29.52;51.01;101124.88;7365065;19;19998;-60
2023/09/07 10:43:29;;;;;;;0.10;0.10;;;;;;;29.93;51.04;101126.28;7366734;19;20029;-60
2023/09/07 10:45:56;;;;;;;0.00;0.00;;;;;;;30.26;50.10;101128.50;7365015;19;20007;-60
2023/09/07 10:48:23;;;;;;;0.03;0.03;;;;;;;30.63;49.59;101121.16;7373678;19;20139;-59
2023/09/07 10:50:48;;;;;;;0.05;0.05;;;;;;;31.06;49.18;101127.56;7365522;19;20014;-61
2023/09/07 10:53:14;;;;;;;0.03;0.03;;;;;;;31.42;47.93;101122.09;7367597;19;20013;-61
2023/09/07 10:55:42;;;;;;;0.00;0.00;;;;;;;31.73;47.20;101108.91;7367995;19;20089;-60
2023/09/07 10:58:09;;;;;;;0.00;0.00;;;;;;;31.97;46.24;101110.91;7368303;19;20981;-60
2023/09/07 11:00:34;;;;;;;0.00;0.00;;;;;;;32.12;45.51;101108.41;7366305;19;20049;-61
2023/09/07 11:03:10;;;;;;;0.10;0.10;;;;;;;32.27;45.73;101104.88;7361719;19;20649;-61
2023/09/07 11:05:37;;;;;;;0.10;0.10;;;;;;;32.21;45.05;101102.00;7366556;19;20026;-58
2023/09/07 11:08:05;;;;;;;0.10;0.10;;;;;;;32.23;44.57;101108.94;7363970;19;20014;-61
2023/09/07 11:10:34;;;;;;;0.10;0.10;;;;;;;32.32;45.39;101101.69;7365595;19;20019;-60
2023/09/07 11:13:06;;;;;;;0.10;0.10;;;;;;;32.42;45.22;101101.56;7365765;19;20010;-59
2023/09/07 11:15:33;;;;;;;0.03;0.03;;;;;;;32.41;45.07;101103.41;7365642;19;20022;-60
2023/09/07 11:18:04;;;;;;;0.08;0.08;;;;;;;32.56;44.52;101098.19;7364040;19;20021;-60
2023/09/07 11:20:30;;;;;;;0.00;0.00;;;;;;;32.51;44.12;101093.28;7364556;19;20022;-59
2023/09/07 11:22:55;;;;;;;0.00;0.00;;;;;;;32.52;44.12;101102.25;7366145;19;20011;-61